Time;durP1;ratioP1;P1;durP2;ratioP2;P2;SDS_P1;SDS_P2;PMS_P1;PMS_P2;Temp;Humidity;BMP_temperature;BMP_pressure;BME280_temperature;BME280_humidity;BME280_pressure;Samples;Min_cycle;Max_cycle;Signal;HPM_P1;HPM_P2
2022/07/23 00:01:06;;;;;;;;;;;26.50;42.30;;;;;;5052217;28;19913;-62
2022/07/23 00:03:32;;;;;;;;;;;26.50;42.50;;;;;;5054106;28;19919;-62
2022/07/23 00:05:57;;;;;;;;;;;26.50;42.40;;;;;;5051487;28;19912;-62
2022/07/23 00:08:23;;;;;;;;;;;26.50;42.30;;;;;;5052341;28;19940;-62
2022/07/23 00:10:48;;;;;;;;;;;26.50;42.50;;;;;;5051334;28;19940;-62
2022/07/23 00:13:14;;;;;;;;;;;26.50;42.50;;;;;;5052678;28;19933;-62
2022/07/23 00:15:39;;;;;;;;;;;26.40;42.50;;;;;;5053051;28;19923;-62
2022/07/23 00:18:04;;;;;;;;;;;26.30;42.40;;;;;;5051599;28;19919;-62
2022/07/23 00:20:30;;;;;;;;;;;26.40;42.40;;;;;;5037545;28;20332;-62
2022/07/23 00:22:55;;;;;;;;;;;26.40;42.40;;;;;;5036755;28;19928;-62
2022/07/23 00:25:21;;;;;;;;;;;26.40;42.20;;;;;;5043636;28;19913;-62
2022/07/23 00:27:47;;;;;;;;;;;26.40;42.10;;;;;;5051167;28;20296;-62
2022/07/23 00:30:12;;;;;;;;;;;26.40;41.90;;;;;;5054029;28;20333;-62
2022/07/23 00:32:51;;;;;;;;;;;26.40;42.10;;;;;;5051005;28;20340;-62
2022/07/23 00:35:16;;;;;;;;;;;26.30;42.20;;;;;;5052543;28;19913;-62
2022/07/23 00:37:41;;;;;;;;;;;26.30;42.20;;;;;;5051441;28;20024;-62
2022/07/23 00:40:07;;;;;;;;;;;26.30;42.20;;;;;;5053476;28;19908;-62
2022/07/23 00:42:33;;;;;;;;;;;26.20;42.40;;;;;;5047548;28;20364;-62
2022/07/23 00:44:58;;;;;;;;;;;26.20;42.50;;;;;;5048492;28;19923;-62
2022/07/23 00:47:24;;;;;;;;;;;26.20;42.50;;;;;;5053281;28;19952;-62
2022/07/23 00:49:49;;;;;;;;;;;26.30;42.60;;;;;;5053010;28;20380;-62
2022/07/23 00:52:15;;;;;;;;;;;26.30;42.50;;;;;;5052091;28;19920;-62
2022/07/23 00:54:41;;;;;;;;;;;26.30;42.50;;;;;;5049478;28;20355;-62
2022/07/23 00:57:06;;;;;;;;;;;26.30;42.70;;;;;;5048602;28;19988;-62
2022/07/23 00:59:31;;;;;;;;;;;26.30;42.60;;;;;;5039200;28;20292;-62
2022/07/23 01:01:57;;;;;;;;;;;26.30;42.70;;;;;;5050858;28;20292;-62
2022/07/23 01:04:22;;;;;;;;;;;26.30;42.60;;;;;;5048518;28;20343;-62
2022/07/23 01:06:48;;;;;;;;;;;26.20;42.70;;;;;;5051147;28;19921;-62
2022/07/23 01:09:13;;;;;;;;;;;26.20;42.80;;;;;;5048072;28;19917;-62
2022/07/23 01:11:39;;;;;;;;;;;26.20;42.60;;;;;;5052884;28;19963;-62
2022/07/23 01:14:11;;;;;;;;;;;26.30;42.70;;;;;;5049463;28;20284;-62
2022/07/23 01:16:36;;;;;;;;;;;26.30;42.70;;;;;;5051141;28;19913;-62
2022/07/23 01:19:02;;;;;;;;;;;26.20;42.70;;;;;;5050956;28;19920;-62
2022/07/23 01:21:27;;;;;;;;;;;26.20;42.80;;;;;;5053018;28;20276;-62
2022/07/23 01:23:52;;;;;;;;;;;26.20;42.70;;;;;;5049217;28;19913;-62
2022/07/23 01:26:18;;;;;;;;;;;26.20;42.90;;;;;;5046697;28;19921;-62
2022/07/23 01:28:43;;;;;;;;;;;26.20;42.80;;;;;;5050166;28;19917;-62
2022/07/23 01:31:09;;;;;;;;;;;26.20;42.80;;;;;;5046221;28;19929;-63
2022/07/23 01:33:34;;;;;;;;;;;26.20;42.90;;;;;;5040333;28;19919;-62
2022/07/23 01:36:00;;;;;;;;;;;26.20;42.90;;;;;;5048464;28;20415;-62
2022/07/23 01:38:25;;;;;;;;;;;26.20;42.90;;;;;;5051117;28;20459;-62
2022/07/23 01:40:50;;;;;;;;;;;26.20;42.90;;;;;;5049856;28;19917;-62
2022/07/23 01:43:16;;;;;;;;;;;26.20;43.10;;;;;;5051299;28;19925;-62
2022/07/23 01:45:43;;;;;;;;;;;26.10;43.10;;;;;;5049423;28;20345;-62
2022/07/23 01:48:09;;;;;;;;;;;26.10;43.20;;;;;;5050603;28;19916;-62
2022/07/23 01:50:34;;;;;;;;;;;26.20;43.40;;;;;;5049948;28;19919;-62
2022/07/23 01:53:00;;;;;;;;;;;26.20;43.30;;;;;;5048618;28;20481;-62
2022/07/23 01:55:25;;;;;;;;;;;26.20;43.40;;;;;;5048980;28;20269;-62
2022/07/23 01:57:51;;;;;;;;;;;26.20;43.30;;;;;;5052151;28;20286;-62
2022/07/23 02:00:16;;;;;;;;;;;26.20;43.40;;;;;;5051389;28;19951;-62
2022/07/23 02:02:42;;;;;;;;;;;26.10;43.30;;;;;;5047585;28;19970;-62
2022/07/23 02:05:07;;;;;;;;;;;26.10;43.60;;;;;;5048791;28;19913;-62
2022/07/23 02:07:33;;;;;;;;;;;26.10;43.60;;;;;;5047931;28;19916;-62
2022/07/23 02:09:58;;;;;;;;;;;26.10;43.70;;;;;;5051888;28;20062;-62
2022/07/23 02:12:24;;;;;;;;;;;26.10;43.70;;;;;;5050134;28;19940;-62
2022/07/23 02:14:49;;;;;;;;;;;26.10;43.80;;;;;;5048959;28;19913;-62
2022/07/23 02:17:14;;;;;;;;;;;26.10;43.90;;;;;;5050592;28;19917;-62
2022/07/23 02:19:40;;;;;;;;;;;26.00;43.80;;;;;;5048505;28;19921;-62
2022/07/23 02:22:05;;;;;;;;;;;26.00;43.90;;;;;;5046935;28;20428;-62
2022/07/23 02:24:31;;;;;;;;;;;26.00;43.90;;;;;;5038582;28;20074;-62
2022/07/23 02:26:56;;;;;;;;;;;26.00;43.80;;;;;;5049084;28;19909;-61
2022/07/23 02:29:22;;;;;;;;;;;26.10;43.80;;;;;;5049261;28;19916;-62
2022/07/23 02:31:47;;;;;;;;;;;26.10;43.90;;;;;;5051720;28;19912;-62
2022/07/23 02:34:13;;;;;;;;;;;26.10;43.80;;;;;;5049384;28;19909;-62
2022/07/23 02:36:39;;;;;;;;;;;26.10;43.80;;;;;;5046447;28;19917;-62
2022/07/23 02:39:04;;;;;;;;;;;26.10;43.90;;;;;;5050359;28;19959;-62
2022/07/23 02:41:30;;;;;;;;;;;26.10;43.80;;;;;;5051189;28;20008;-62
2022/07/23 02:43:55;;;;;;;;;;;26.10;43.80;;;;;;5043536;28;20347;-62
2022/07/23 02:46:21;;;;;;;;;;;26.00;43.80;;;;;;5051854;28;20346;-62
2022/07/23 02:48:46;;;;;;;;;;;26.00;43.80;;;;;;5049615;28;19913;-62
2022/07/23 02:51:11;;;;;;;;;;;26.00;43.80;;;;;;5050735;28;19913;-62
2022/07/23 02:53:37;;;;;;;;;;;26.00;43.80;;;;;;5048654;28;20018;-62
2022/07/23 02:56:02;;;;;;;;;;;26.00;43.80;;;;;;5047462;28;19913;-62
2022/07/23 02:58:28;;;;;;;;;;;26.00;43.80;;;;;;5051660;28;20653;-62
2022/07/23 03:00:53;;;;;;;;;;;26.10;43.80;;;;;;5051056;28;19916;-62
2022/07/23 03:03:19;;;;;;;;;;;26.00;43.80;;;;;;5050063;28;19928;-62
2022/07/23 03:05:44;;;;;;;;;;;26.00;43.90;;;;;;5050619;28;20034;-62
2022/07/23 03:08:10;;;;;;;;;;;25.90;44.00;;;;;;5050215;28;19920;-62
2022/07/23 03:10:35;;;;;;;;;;;25.90;44.00;;;;;;5060343;28;19956;-62
2022/07/23 03:13:01;;;;;;;;;;;25.90;43.90;;;;;;5046979;28;20544;-62
2022/07/23 03:15:26;;;;;;;;;;;25.80;44.00;;;;;;5050745;28;19913;-62
2022/07/23 03:17:52;;;;;;;;;;;25.80;44.10;;;;;;5050877;28;19948;-62
2022/07/23 03:20:17;;;;;;;;;;;25.90;44.10;;;;;;5051433;28;19951;-62
2022/07/23 03:22:42;;;;;;;;;;;25.90;44.10;;;;;;5050532;28;19917;-62
2022/07/23 03:25:08;;;;;;;;;;;25.90;44.10;;;;;;5052863;28;19919;-62
2022/07/23 03:27:34;;;;;;;;;;;25.80;44.10;;;;;;5052063;28;19924;-62
2022/07/23 03:29:59;;;;;;;;;;;25.80;44.20;;;;;;5054805;28;19999;-62
2022/07/23 03:32:25;;;;;;;;;;;25.90;44.20;;;;;;5052718;28;19913;-62
2022/07/23 03:34:50;;;;;;;;;;;25.90;44.30;;;;;;5051414;28;19930;-62
2022/07/23 03:37:16;;;;;;;;;;;25.80;44.30;;;;;;5052598;28;19909;-62
2022/07/23 03:39:41;;;;;;;;;;;25.80;44.40;;;;;;5052942;28;19913;-62
2022/07/23 03:42:07;;;;;;;;;;;25.80;44.40;;;;;;5053168;28;19936;-61
2022/07/23 03:44:32;;;;;;;;;;;25.80;44.60;;;;;;5051906;28;19996;-62
2022/07/23 03:46:58;;;;;;;;;;;25.80;44.60;;;;;;5044588;28;19975;-62
2022/07/23 03:49:23;;;;;;;;;;;25.80;44.60;;;;;;5048727;28;19924;-62
2022/07/23 03:51:49;;;;;;;;;;;25.80;44.60;;;;;;5053906;28;20421;-62
2022/07/23 03:54:14;;;;;;;;;;;25.90;44.60;;;;;;5051758;28;19912;-62
2022/07/23 03:56:40;;;;;;;;;;;25.90;44.60;;;;;;5052916;28;20384;-62
2022/07/23 03:59:05;;;;;;;;;;;25.90;44.70;;;;;;5054561;28;20361;-62
2022/07/23 04:01:31;;;;;;;;;;;25.90;44.70;;;;;;5050265;28;19917;-62
2022/07/23 04:03:56;;;;;;;;;;;25.90;44.60;;;;;;5053978;28;19909;-62
2022/07/23 04:06:21;;;;;;;;;;;25.80;44.70;;;;;;5049542;28;19920;-62
2022/07/23 04:08:47;;;;;;;;;;;25.90;44.70;;;;;;5051990;28;20373;-62
2022/07/23 04:11:13;;;;;;;;;;;25.80;45.30;;;;;;5053683;28;19912;-62
2022/07/23 04:13:40;;;;;;;;;;;25.80;44.60;;;;;;5051271;28;20576;-62
2022/07/23 04:16:06;;;;;;;;;;;25.90;44.60;;;;;;5054046;28;19987;-62
2022/07/23 04:18:31;;;;;;;;;;;25.80;44.60;;;;;;5049868;28;19965;-61
2022/07/23 04:20:57;;;;;;;;;;;25.80;44.60;;;;;;5051021;28;19913;-62
2022/07/23 04:23:22;;;;;;;;;;;25.80;44.60;;;;;;5046046;28;19959;-62
2022/07/23 04:25:48;;;;;;;;;;;25.80;44.70;;;;;;5044968;28;19912;-61
2022/07/23 04:28:13;;;;;;;;;;;25.80;45.40;;;;;;5053078;28;19920;-62
2022/07/23 04:30:38;;;;;;;;;;;25.70;44.90;;;;;;5053811;28;19962;-62
2022/07/23 04:33:07;;;;;;;;;;;25.80;45.00;;;;;;5049633;28;20003;-62
2022/07/23 04:35:33;;;;;;;;;;;25.80;45.00;;;;;;5052366;28;20395;-62
2022/07/23 04:37:59;;;;;;;;;;;25.70;45.00;;;;;;5047422;28;19921;-62
2022/07/23 04:40:24;;;;;;;;;;;25.80;45.00;;;;;;5053264;28;19979;-62
2022/07/23 04:42:50;;;;;;;;;;;25.80;45.10;;;;;;5052477;28;20364;-62
2022/07/23 04:45:15;;;;;;;;;;;25.80;45.00;;;;;;5053355;28;19920;-62
2022/07/23 04:47:41;;;;;;;;;;;25.80;45.00;;;;;;5052749;28;19958;-62
2022/07/23 04:50:06;;;;;;;;;;;25.70;45.80;;;;;;5050162;28;20365;-62
2022/07/23 04:52:32;;;;;;;;;;;25.70;45.10;;;;;;5052594;28;20486;-62
2022/07/23 04:54:57;;;;;;;;;;;25.70;45.20;;;;;;5051600;28;19909;-62
2022/07/23 04:57:22;;;;;;;;;;;25.70;45.40;;;;;;5049809;28;19913;-62
2022/07/23 04:59:48;;;;;;;;;;;25.60;45.50;;;;;;5053277;28;20010;-62
2022/07/23 05:02:13;;;;;;;;;;;25.60;45.70;;;;;;5047046;28;19917;-62
2022/07/23 05:04:39;;;;;;;;;;;25.60;45.70;;;;;;5040121;28;19916;-62
2022/07/23 05:07:04;;;;;;;;;;;25.60;45.80;;;;;;5051653;28;19979;-62
2022/07/23 05:09:30;;;;;;;;;;;25.60;45.80;;;;;;5041542;28;19963;-62
2022/07/23 05:11:55;;;;;;;;;;;25.60;45.80;;;;;;5045738;28;19929;-62
2022/07/23 05:14:20;;;;;;;;;;;25.60;45.80;;;;;;5048589;28;20434;-62
2022/07/23 05:16:46;;;;;;;;;;;25.60;45.80;;;;;;5052538;28;19909;-62
2022/07/23 05:19:12;;;;;;;;;;;25.60;45.90;;;;;;5050173;28;19966;-62
2022/07/23 05:21:37;;;;;;;;;;;25.60;45.90;;;;;;5051479;28;20003;-62
2022/07/23 05:24:03;;;;;;;;;;;25.60;46.00;;;;;;5047062;28;20688;-62
2022/07/23 05:26:28;;;;;;;;;;;25.60;46.00;;;;;;5051694;28;20277;-62
2022/07/23 05:28:54;;;;;;;;;;;25.60;45.80;;;;;;5050183;28;19916;-61
2022/07/23 05:31:20;;;;;;;;;;;25.60;45.70;;;;;;5051994;28;19920;-62
2022/07/23 05:33:45;;;;;;;;;;;25.60;45.70;;;;;;5050479;28;19916;-62
2022/07/23 05:36:10;;;;;;;;;;;25.60;46.30;;;;;;5052035;28;19917;-62
2022/07/23 05:38:36;;;;;;;;;;;25.60;45.50;;;;;;5050812;28;19961;-62
2022/07/23 05:41:01;;;;;;;;;;;25.60;45.50;;;;;;5052267;28;19912;-62
2022/07/23 05:43:27;;;;;;;;;;;25.70;45.60;;;;;;5051296;28;19917;-62
2022/07/23 05:45:53;;;;;;;;;;;25.60;45.40;;;;;;5049280;28;19917;-62
2022/07/23 05:48:18;;;;;;;;;;;25.70;45.30;;;;;;5032567;28;19910;-62
2022/07/23 05:50:44;;;;;;;;;;;25.70;45.10;;;;;;5044228;28;19923;-62
2022/07/23 05:53:09;;;;;;;;;;;25.70;45.10;;;;;;5051726;28;19908;-62
2022/07/23 05:55:35;;;;;;;;;;;25.70;45.10;;;;;;5050323;28;19912;-62
2022/07/23 05:58:00;;;;;;;;;;;25.60;45.10;;;;;;5051608;28;20439;-62
2022/07/23 06:00:26;;;;;;;;;;;25.60;45.10;;;;;;5047566;28;20357;-62
2022/07/23 06:02:52;;;;;;;;;;;25.60;45.10;;;;;;5048427;28;19921;-62
2022/07/23 06:05:17;;;;;;;;;;;25.70;45.10;;;;;;5049564;28;19959;-62
2022/07/23 06:07:42;;;;;;;;;;;25.60;45.10;;;;;;5045776;28;19958;-62
2022/07/23 06:10:08;;;;;;;;;;;25.60;45.20;;;;;;5052178;28;20428;-62
2022/07/23 06:12:33;;;;;;;;;;;25.50;45.30;;;;;;5049234;28;19931;-62
2022/07/23 06:14:59;;;;;;;;;;;25.50;45.30;;;;;;5021603;28;20336;-62
2022/07/23 06:17:24;;;;;;;;;;;25.50;45.20;;;;;;5046995;28;19981;-62
2022/07/23 06:19:50;;;;;;;;;;;25.50;45.40;;;;;;5051928;28;19948;-62
2022/07/23 06:22:15;;;;;;;;;;;25.50;45.40;;;;;;5045875;28;19916;-62
2022/07/23 06:24:41;;;;;;;;;;;25.50;45.40;;;;;;5043938;28;19917;-62
2022/07/23 06:27:06;;;;;;;;;;;25.50;45.50;;;;;;5050732;28;19913;-62
2022/07/23 06:29:32;;;;;;;;;;;25.40;45.60;;;;;;5045049;28;20004;-62
2022/07/23 06:31:57;;;;;;;;;;;25.30;45.70;;;;;;5050927;28;19920;-62
2022/07/23 06:34:23;;;;;;;;;;;25.30;45.90;;;;;;5048756;28;19913;-62
2022/07/23 06:36:48;;;;;;;;;;;25.30;45.90;;;;;;5050536;28;19909;-62
2022/07/23 06:39:14;;;;;;;;;;;25.30;46.10;;;;;;5049119;28;19955;-62
2022/07/23 06:41:39;;;;;;;;;;;25.30;46.10;;;;;;5051845;28;19908;-62
2022/07/23 06:44:05;;;;;;;;;;;25.30;46.20;;;;;;5048660;28;19922;-62
2022/07/23 06:46:30;;;;;;;;;;;25.30;46.30;;;;;;5050894;28;20265;-62
2022/07/23 06:48:56;;;;;;;;;;;25.30;46.20;;;;;;5047976;28;19913;-62
2022/07/23 06:51:21;;;;;;;;;;;25.30;46.40;;;;;;5047412;28;19916;-62
2022/07/23 06:53:46;;;;;;;;;;;25.30;46.40;;;;;;5048701;28;19913;-62
2022/07/23 06:56:12;;;;;;;;;;;25.30;46.60;;;;;;5052000;28;19912;-62
2022/07/23 06:58:37;;;;;;;;;;;25.20;46.60;;;;;;5051073;28;20065;-62
2022/07/23 07:01:03;;;;;;;;;;;25.30;46.90;;;;;;5055178;28;19912;-62
2022/07/23 07:03:28;;;;;;;;;;;25.20;46.90;;;;;;5053193;28;20023;-62
2022/07/23 07:05:54;;;;;;;;;;;25.20;46.90;;;;;;5053767;28;19916;-62
2022/07/23 07:08:19;;;;;;;;;;;25.20;46.90;;;;;;5051066;28;20430;-62
2022/07/23 07:10:45;;;;;;;;;;;25.20;46.80;;;;;;5055325;28;19908;-62
2022/07/23 07:13:10;;;;;;;;;;;25.10;46.80;;;;;;5051995;28;20343;-62
2022/07/23 07:15:36;;;;;;;;;;;25.10;46.70;;;;;;5053214;28;19909;-62
2022/07/23 07:18:01;;;;;;;;;;;25.10;46.70;;;;;;5052662;28;20005;-63
2022/07/23 07:20:26;;;;;;;;;;;25.10;46.70;;;;;;5052970;28;19909;-62
2022/07/23 07:22:52;;;;;;;;;;;25.10;46.70;;;;;;5050987;28;19923;-63
2022/07/23 07:25:17;;;;;;;;;;;25.10;46.70;;;;;;5053603;28;19909;-62
2022/07/23 07:27:43;;;;;;;;;;;25.20;46.60;;;;;;5053065;28;19913;-62
2022/07/23 07:30:11;;;;;;;;;;;25.20;46.60;;;;;;5053031;28;19921;-63
2022/07/23 07:32:36;;;;;;;;;;;25.20;46.50;;;;;;5052430;28;20331;-62
2022/07/23 07:35:03;;;;;;;;;;;25.20;46.50;;;;;;5052245;28;20007;-62
2022/07/23 07:37:29;;;;;;;;;;;25.20;46.60;;;;;;5052164;28;19966;-63
2022/07/23 07:39:54;;;;;;;;;;;25.20;47.20;;;;;;5053177;28;19917;-62
2022/07/23 07:42:20;;;;;;;;;;;25.20;46.60;;;;;;5053497;28;19924;-63
2022/07/23 07:44:45;;;;;;;;;;;25.20;46.80;;;;;;5054280;28;20006;-63
2022/07/23 07:47:10;;;;;;;;;;;25.10;47.00;;;;;;5052314;28;19921;-62
2022/07/23 07:49:36;;;;;;;;;;;25.00;47.20;;;;;;5053124;28;20387;-62
2022/07/23 07:52:02;;;;;;;;;;;25.00;47.30;;;;;;5051438;28;19925;-62
2022/07/23 07:54:27;;;;;;;;;;;25.10;47.30;;;;;;5052595;28;19959;-62
2022/07/23 07:56:53;;;;;;;;;;;25.10;47.30;;;;;;5053264;28;20384;-63
2022/07/23 07:59:18;;;;;;;;;;;25.10;47.20;;;;;;5042463;28;20364;-63
2022/07/23 08:01:44;;;;;;;;;;;25.10;47.10;;;;;;5046810;28;20364;-63
2022/07/23 08:04:09;;;;;;;;;;;25.10;47.20;;;;;;5053796;28;20433;-62
2022/07/23 08:06:35;;;;;;;;;;;25.10;47.30;;;;;;5053167;28;20285;-62
2022/07/23 08:09:00;;;;;;;;;;;25.20;47.20;;;;;;5052208;28;19959;-62
2022/07/23 08:11:26;;;;;;;;;;;25.10;47.20;;;;;;5054183;28;19921;-63
2022/07/23 08:13:51;;;;;;;;;;;25.10;47.10;;;;;;5053916;28;20001;-62
2022/07/23 08:16:16;;;;;;;;;;;25.10;47.00;;;;;;5047717;28;19920;-62
2022/07/23 08:18:42;;;;;;;;;;;25.00;47.20;;;;;;5052659;28;19908;-62
2022/07/23 08:21:07;;;;;;;;;;;25.00;47.10;;;;;;5051166;28;19959;-62
2022/07/23 08:23:34;;;;;;;;;;;25.00;47.30;;;;;;5046219;28;19970;-62
2022/07/23 08:26:00;;;;;;;;;;;25.00;47.20;;;;;;5049971;28;19917;-62
2022/07/23 08:28:26;;;;;;;;;;;25.00;46.90;;;;;;5051021;28;19963;-62
2022/07/23 08:30:51;;;;;;;;;;;25.00;46.80;;;;;;5050083;28;19952;-61
2022/07/23 08:33:17;;;;;;;;;;;25.10;46.70;;;;;;5052996;28;19934;-62
2022/07/23 08:35:45;;;;;;;;;;;25.10;47.00;;;;;;5047757;28;19920;-62
2022/07/23 08:38:11;;;;;;;;;;;25.00;47.40;;;;;;5037314;28;20384;-62
2022/07/23 08:40:37;;;;;;;;;;;24.90;47.70;;;;;;5048898;28;19921;-62
2022/07/23 08:43:04;;;;;;;;;;;24.90;47.90;;;;;;5051088;28;19921;-62
2022/07/23 08:45:29;;;;;;;;;;;24.90;47.80;;;;;;5052715;28;20396;-63
2022/07/23 08:47:55;;;;;;;;;;;24.90;47.70;;;;;;5053270;28;19909;-62
2022/07/23 08:50:21;;;;;;;;;;;24.90;47.60;;;;;;5053056;28;19963;-62
2022/07/23 08:52:48;;;;;;;;;;;24.90;47.50;;;;;;5049027;28;20344;-62
2022/07/23 08:55:13;;;;;;;;;;;24.90;47.20;;;;;;5052353;28;19913;-62
2022/07/23 08:57:39;;;;;;;;;;;25.00;47.20;;;;;;5049911;28;20011;-62
2022/07/23 09:00:06;;;;;;;;;;;25.00;46.90;;;;;;5046057;28;20011;-62
2022/07/23 09:02:36;;;;;;;;;;;25.00;46.80;;;;;;5047855;28;19921;-62
2022/07/23 09:05:01;;;;;;;;;;;25.10;46.60;;;;;;5050172;28;19916;-62
2022/07/23 09:07:26;;;;;;;;;;;25.10;46.50;;;;;;5049995;28;19919;-62
2022/07/23 09:10:04;;;;;;;;;;;25.10;46.50;;;;;;5052022;28;19956;-62
2022/07/23 09:12:29;;;;;;;;;;;25.10;46.70;;;;;;5048014;28;19925;-62
2022/07/23 09:14:55;;;;;;;;;;;25.10;46.70;;;;;;5048838;28;20270;-62
2022/07/23 09:17:21;;;;;;;;;;;25.00;46.60;;;;;;5046655;28;19982;-62
2022/07/23 09:19:46;;;;;;;;;;;25.10;46.30;;;;;;5047979;28;20000;-62
2022/07/23 09:22:21;;;;;;;;;;;25.10;46.40;;;;;;5046714;28;20448;-62
2022/07/23 09:25:05;;;;;;;;;;;25.10;46.40;;;;;;5048400;28;19917;-62
2022/07/23 09:27:47;;;;;;;;;;;25.10;46.40;;;;;;5046916;28;19919;-62
2022/07/23 09:30:12;;;;;;;;;;;25.10;46.40;;;;;;5054831;28;19936;-62
2022/07/23 09:32:41;;;;;;;;;;;25.00;46.40;;;;;;5051973;28;20331;-62
2022/07/23 09:35:06;;;;;;;;;;;25.00;46.20;;;;;;5050063;28;19913;-62
2022/07/23 09:37:32;;;;;;;;;;;25.10;46.10;;;;;;5051913;28;20012;-62
2022/07/23 09:40:07;;;;;;;;;;;25.10;45.90;;;;;;5045219;28;20372;-62
2022/07/23 09:42:33;;;;;;;;;;;25.10;45.90;;;;;;5052121;28;19913;-62
2022/07/23 09:44:58;;;;;;;;;;;25.00;45.90;;;;;;5052106;28;19917;-62
2022/07/23 09:47:25;;;;;;;;;;;25.00;45.80;;;;;;5052440;28;19920;-62
2022/07/23 09:50:08;;;;;;;;;;;25.10;45.70;;;;;;5052425;28;20434;-62
2022/07/23 09:52:34;;;;;;;;;;;25.20;45.50;;;;;;5058922;28;20023;-62
2022/07/23 09:55:00;;;;;;;;;;;25.10;45.60;;;;;;5050804;28;20291;-62
2022/07/23 09:57:26;;;;;;;;;;;25.10;45.70;;;;;;5048499;28;19912;-62
2022/07/23 09:59:52;;;;;;;;;;;25.10;45.50;;;;;;5050677;28;19917;-62
2022/07/23 10:02:17;;;;;;;;;;;25.00;45.50;;;;;;5051928;28;19936;-62
2022/07/23 10:04:43;;;;;;;;;;;25.00;45.50;;;;;;5045728;28;19999;-62
2022/07/23 10:07:10;;;;;;;;;;;24.90;45.40;;;;;;5050273;28;19923;-63
2022/07/23 10:09:36;;;;;;;;;;;25.00;45.40;;;;;;5051630;28;19991;-62
2022/07/23 10:14:38;;;;;;;;;;;25.10;45.20;;;;;;5059024;28;19975;-62
2022/07/23 10:17:03;;;;;;;;;;;25.00;45.20;;;;;;5051768;28;19962;-62
2022/07/23 10:19:29;;;;;;;;;;;24.90;45.40;;;;;;5032532;28;20066;-62
2022/07/23 10:21:57;;;;;;;;;;;24.80;45.70;;;;;;5049768;28;20015;-62
2022/07/23 10:24:25;;;;;;;;;;;24.80;45.70;;;;;;5046707;28;20025;-62
2022/07/23 10:26:53;;;;;;;;;;;24.90;45.70;;;;;;5051706;28;19932;-62
2022/07/23 10:29:22;;;;;;;;;;;24.80;45.60;;;;;;5052191;28;20562;-62
2022/07/23 10:32:01;;;;;;;;;;;24.80;45.60;;;;;;5054542;28;19917;-62
2022/07/23 10:34:53;;;;;;;;;;;24.80;45.40;;;;;;5051019;28;19913;-62
2022/07/23 10:37:23;;;;;;;;;;;24.90;45.20;;;;;;5034135;28;19914;-62
2022/07/23 10:40:08;;;;;;;;;;;24.90;45.10;;;;;;5076281;28;20373;-62
2022/07/23 10:42:33;;;;;;;;;;;24.90;45.00;;;;;;5049263;28;20015;-62
2022/07/23 10:44:58;;;;;;;;;;;24.80;44.90;;;;;;5055598;28;20483;-62
2022/07/23 10:49:53;;;;;;;;;;;25.00;44.60;;;;;;5056131;28;19912;-62
2022/07/23 10:52:23;;;;;;;;;;;25.10;44.30;;;;;;5054700;28;20269;-62
2022/07/23 10:54:52;;;;;;;;;;;25.00;44.40;;;;;;5049508;28;19916;-62
2022/07/23 10:57:18;;;;;;;;;;;25.10;44.50;;;;;;5054200;28;19913;-62
2022/07/23 11:00:12;;;;;;;;;;;25.10;44.50;;;;;;5051066;28;19924;-62
2022/07/23 11:02:38;;;;;;;;;;;25.10;44.50;;;;;;5038378;28;19917;-62
2022/07/23 11:05:07;;;;;;;;;;;25.10;44.20;;;;;;5055268;28;20304;-62
2022/07/23 11:07:33;;;;;;;;;;;25.10;44.30;;;;;;5046283;28;20052;-61
2022/07/23 11:09:58;;;;;;;;;;;25.10;44.50;;;;;;5046473;28;20229;-61
2022/07/23 11:12:24;;;;;;;;;;;25.00;44.70;;;;;;5052705;28;19924;-62
2022/07/23 11:15:09;;;;;;;;;;;25.00;44.60;;;;;;5049250;28;19924;-62
2022/07/23 11:17:50;;;;;;;;;;;25.10;44.40;;;;;;5034484;28;19909;-62
2022/07/23 11:20:16;;;;;;;;;;;25.10;44.30;;;;;;5034162;28;19910;-62
2022/07/23 11:22:44;;;;;;;;;;;25.20;44.40;;;;;;5034237;28;19913;-62
2022/07/23 11:25:10;;;;;;;;;;;25.30;44.30;;;;;;5047835;28;20051;-62
2022/07/23 11:27:39;;;;;;;;;;;25.30;44.20;;;;;;5052515;28;19940;-62
2022/07/23 11:30:05;;;;;;;;;;;25.30;44.20;;;;;;5052755;28;19924;-62
2022/07/23 11:32:33;;;;;;;;;;;25.30;44.10;;;;;;5053231;28;19913;-62
2022/07/23 11:34:58;;;;;;;;;;;25.30;44.10;;;;;;5052615;28;20058;-62
2022/07/23 11:37:28;;;;;;;;;;;25.30;44.10;;;;;;5051115;28;20003;-62
2022/07/23 11:39:57;;;;;;;;;;;25.30;43.90;;;;;;5054850;28;19958;-62
2022/07/23 11:42:23;;;;;;;;;;;25.20;43.70;;;;;;5053813;28;19952;-62
2022/07/23 11:44:49;;;;;;;;;;;25.30;43.80;;;;;;5054888;28;19909;-62
2022/07/23 11:47:14;;;;;;;;;;;25.20;43.70;;;;;;5054773;28;19944;-62
2022/07/23 11:49:51;;;;;;;;;;;25.30;43.90;;;;;;5054275;28;19913;-62
2022/07/23 11:52:17;;;;;;;;;;;25.30;44.00;;;;;;5051500;28;19913;-62
2022/07/23 11:54:53;;;;;;;;;;;25.30;44.10;;;;;;5054539;28;20287;-62
2022/07/23 11:57:19;;;;;;;;;;;25.30;44.10;;;;;;5054379;28;20257;-62
2022/07/23 11:59:46;;;;;;;;;;;25.30;44.00;;;;;;5038098;28;19935;-62
2022/07/23 12:02:11;;;;;;;;;;;25.30;43.90;;;;;;5049194;28;19913;-62
2022/07/23 12:04:37;;;;;;;;;;;25.30;43.80;;;;;;5054682;28;19978;-62
2022/07/23 12:07:02;;;;;;;;;;;25.30;43.90;;;;;;5051884;28;19917;-62
2022/07/23 12:09:28;;;;;;;;;;;25.30;44.20;;;;;;5053659;28;19912;-62
2022/07/23 12:11:57;;;;;;;;;;;25.20;44.40;;;;;;5053973;28;20541;-62
2022/07/23 12:14:23;;;;;;;;;;;25.20;44.60;;;;;;5054445;28;19940;-62
2022/07/23 12:17:06;;;;;;;;;;;25.20;44.70;;;;;;5053494;28;19917;-62
2022/07/23 12:19:31;;;;;;;;;;;25.20;44.80;;;;;;5054140;28;19909;-63
2022/07/23 12:21:56;;;;;;;;;;;25.20;44.80;;;;;;5051182;28;19920;-62
2022/07/23 12:24:22;;;;;;;;;;;25.10;44.80;;;;;;5051981;28;19959;-63
2022/07/23 12:27:06;;;;;;;;;;;25.20;44.80;;;;;;5053769;28;19912;-62
2022/07/23 12:29:35;;;;;;;;;;;25.20;44.80;;;;;;5047391;28;19912;-62
2022/07/23 12:32:00;;;;;;;;;;;25.20;45.00;;;;;;5053805;28;19909;-62
2022/07/23 12:34:26;;;;;;;;;;;25.20;44.90;;;;;;5053339;28;19919;-62
2022/07/23 12:36:51;;;;;;;;;;;25.20;45.10;;;;;;5048690;28;20050;-62
2022/07/23 12:39:30;;;;;;;;;;;25.30;45.10;;;;;;5052438;28;19909;-62
2022/07/23 12:41:56;;;;;;;;;;;25.30;45.70;;;;;;5053263;28;19916;-62
2022/07/23 12:44:21;;;;;;;;;;;25.20;45.10;;;;;;5053373;28;19916;-62
2022/07/23 12:46:51;;;;;;;;;;;25.30;45.30;;;;;;5051157;28;20300;-62
2022/07/23 12:49:26;;;;;;;;;;;25.20;45.30;;;;;;5053561;28;19908;-62
2022/07/23 12:51:52;;;;;;;;;;;25.30;45.20;;;;;;5052443;28;19913;-63
2022/07/23 12:54:17;;;;;;;;;;;25.30;45.20;;;;;;5052354;28;19918;-62
2022/07/23 12:56:46;;;;;;;;;;;25.20;45.10;;;;;;5052762;28;19912;-62
2022/07/23 12:59:13;;;;;;;;;;;25.30;45.10;;;;;;5053135;28;20388;-62
2022/07/23 13:01:39;;;;;;;;;;;25.30;45.10;;;;;;5052015;28;19936;-62
2022/07/23 13:04:11;;;;;;;;;;;25.40;45.10;;;;;;5053129;28;19917;-62
2022/07/23 13:06:37;;;;;;;;;;;25.40;45.10;;;;;;5052927;28;19909;-62
2022/07/23 13:09:03;;;;;;;;;;;25.30;45.10;;;;;;5051596;28;19916;-62
2022/07/23 13:11:29;;;;;;;;;;;25.30;45.00;;;;;;5052923;28;20424;-62
2022/07/23 13:13:54;;;;;;;;;;;25.40;45.10;;;;;;5052860;28;20007;-62
2022/07/23 13:16:20;;;;;;;;;;;25.30;44.90;;;;;;5053189;28;19999;-62
2022/07/23 13:18:45;;;;;;;;;;;25.30;44.70;;;;;;5050607;28;20350;-62
2022/07/23 13:21:10;;;;;;;;;;;25.30;44.70;;;;;;5052934;28;19909;-62
2022/07/23 13:23:36;;;;;;;;;;;25.30;44.70;;;;;;5051073;28;19913;-62
2022/07/23 13:26:02;;;;;;;;;;;25.30;44.80;;;;;;5042436;28;19959;-62
2022/07/23 13:28:27;;;;;;;;;;;25.30;44.60;;;;;;5052982;28;20357;-62
2022/07/23 13:30:53;;;;;;;;;;;25.30;44.60;;;;;;5052783;28;19909;-62
2022/07/23 13:33:19;;;;;;;;;;;25.30;44.50;;;;;;5051521;28;19978;-63
2022/07/23 13:35:44;;;;;;;;;;;25.30;44.30;;;;;;5050346;28;19917;-62
2022/07/23 13:38:09;;;;;;;;;;;25.30;44.10;;;;;;5049371;28;20007;-62
2022/07/23 13:40:39;;;;;;;;;;;25.30;44.00;;;;;;5051385;28;19920;-62
2022/07/23 13:43:05;;;;;;;;;;;25.30;44.10;;;;;;5051003;28;19916;-62
2022/07/23 13:45:31;;;;;;;;;;;25.30;43.90;;;;;;5052563;28;20380;-62
2022/07/23 13:47:56;;;;;;;;;;;25.20;44.10;;;;;;5052359;28;19948;-62
2022/07/23 13:50:22;;;;;;;;;;;25.20;44.10;;;;;;5067078;28;19917;-62
2022/07/23 13:52:47;;;;;;;;;;;25.30;44.10;;;;;;5048422;28;20012;-62
2022/07/23 13:55:13;;;;;;;;;;;25.30;44.00;;;;;;5051287;28;19919;-62
2022/07/23 13:57:38;;;;;;;;;;;25.30;44.00;;;;;;5050128;28;19917;-62
2022/07/23 14:00:04;;;;;;;;;;;25.30;44.00;;;;;;5036425;28;19913;-62
2022/07/23 14:02:30;;;;;;;;;;;25.30;44.20;;;;;;5048285;28;19916;-62
2022/07/23 14:04:56;;;;;;;;;;;25.30;44.30;;;;;;5050492;28;19920;-61
2022/07/23 14:07:22;;;;;;;;;;;25.30;44.30;;;;;;5049733;28;20008;-61
2022/07/23 14:09:47;;;;;;;;;;;25.30;44.20;;;;;;5051025;28;19925;-61
2022/07/23 14:12:13;;;;;;;;;;;25.30;44.10;;;;;;5051053;28;19925;-61
2022/07/23 14:14:38;;;;;;;;;;;25.30;44.10;;;;;;5051936;28;20664;-62
2022/07/23 14:17:04;;;;;;;;;;;25.30;44.10;;;;;;5051951;28;19913;-61